sensor_id;sensor_type;location;lat;lon;timestamp;P1;durP1;ratioP1;P2;durP2;ratioP2
56136;SDS011;42008;52.934;5.884;2022-12-07T00:02:17;14.30;;;2.40;;
56136;SDS011;42008;52.934;5.884;2022-12-07T00:04:42;10.87;;;3.17;;
56136;SDS011;42008;52.934;5.884;2022-12-07T00:07:08;14.70;;;2.87;;
56136;SDS011;42008;52.934;5.884;2022-12-07T00:09:34;13.77;;;2.37;;
56136;SDS011;42008;52.934;5.884;2022-12-07T00:11:59;13.63;;;2.40;;
56136;SDS011;42008;52.934;5.884;2022-12-07T00:14:25;16.77;;;2.33;;
56136;SDS011;42008;52.934;5.884;2022-12-07T00:16:50;18.67;;;2.40;;
56136;SDS011;42008;52.934;5.884;2022-12-07T00:19:17;16.60;;;2.40;;
56136;SDS011;42008;52.934;5.884;2022-12-07T00:21:43;18.13;;;2.53;;
56136;SDS011;42008;52.934;5.884;2022-12-07T00:24:09;11.63;;;2.47;;
56136;SDS011;42008;52.934;5.884;2022-12-07T00:26:36;18.67;;;2.60;;
56136;SDS011;42008;52.934;5.884;2022-12-07T00:29:04;19.03;;;2.53;;
56136;SDS011;42008;52.934;5.884;2022-12-07T00:31:34;13.20;;;2.50;;
56136;SDS011;42008;52.934;5.884;2022-12-07T00:34:03;14.75;;;2.60;;
56136;SDS011;42008;52.934;5.884;2022-12-07T00:36:29;16.63;;;2.27;;
56136;SDS011;42008;52.934;5.884;2022-12-07T00:38:57;18.93;;;2.40;;
56136;SDS011;42008;52.934;5.884;2022-12-07T00:41:23;18.73;;;3.23;;
56136;SDS011;42008;52.934;5.884;2022-12-07T00:43:50;10.70;;;2.03;;
56136;SDS011;42008;52.934;5.884;2022-12-07T00:46:17;15.40;;;1.90;;
56136;SDS011;42008;52.934;5.884;2022-12-07T00:48:43;10.13;;;1.60;;
56136;SDS011;42008;52.934;5.884;2022-12-07T00:51:09;12.63;;;1.90;;
56136;SDS011;42008;52.934;5.884;2022-12-07T00:53:36;12.27;;;1.73;;
56136;SDS011;42008;52.934;5.884;2022-12-07T00:56:06;15.20;;;2.43;;
56136;SDS011;42008;52.934;5.884;2022-12-07T00:58:36;15.50;;;2.07;;
56136;SDS011;42008;52.934;5.884;2022-12-07T01:01:02;19.60;;;2.13;;
56136;SDS011;42008;52.934;5.884;2022-12-07T01:03:30;15.30;;;2.47;;
56136;SDS011;42008;52.934;5.884;2022-12-07T01:05:56;15.10;;;2.03;;
56136;SDS011;42008;52.934;5.884;2022-12-07T01:08:22;9.47;;;1.83;;
56136;SDS011;42008;52.934;5.884;2022-12-07T01:10:49;13.93;;;1.80;;
56136;SDS011;42008;52.934;5.884;2022-12-07T01:13:23;15.60;;;1.87;;
56136;SDS011;42008;52.934;5.884;2022-12-07T01:15:48;11.00;;;2.03;;
56136;SDS011;42008;52.934;5.884;2022-12-07T01:18:14;16.97;;;3.23;;
56136;SDS011;42008;52.934;5.884;2022-12-07T01:20:39;17.93;;;1.93;;
56136;SDS011;42008;52.934;5.884;2022-12-07T01:23:05;10.30;;;1.60;;
56136;SDS011;42008;52.934;5.884;2022-12-07T01:25:31;13.43;;;2.03;;
56136;SDS011;42008;52.934;5.884;2022-12-07T01:27:56;10.20;;;1.60;;
56136;SDS011;42008;52.934;5.884;2022-12-07T01:30:22;20.03;;;2.13;;
56136;SDS011;42008;52.934;5.884;2022-12-07T01:32:48;17.73;;;2.00;;
56136;SDS011;42008;52.934;5.884;2022-12-07T01:35:13;15.77;;;2.33;;
56136;SDS011;42008;52.934;5.884;2022-12-07T01:37:39;14.27;;;2.07;;
56136;SDS011;42008;52.934;5.884;2022-12-07T01:40:05;12.90;;;1.90;;
56136;SDS011;42008;52.934;5.884;2022-12-07T01:42:32;12.90;;;1.80;;
56136;SDS011;42008;52.934;5.884;2022-12-07T01:45:22;11.67;;;1.50;;
56136;SDS011;42008;52.934;5.884;2022-12-07T01:48:03;11.10;;;1.67;;
56136;SDS011;42008;52.934;5.884;2022-12-07T01:50:30;14.07;;;2.20;;
56136;SDS011;42008;52.934;5.884;2022-12-07T01:52:58;13.37;;;1.57;;
56136;SDS011;42008;52.934;5.884;2022-12-07T01:55:27;13.53;;;2.17;;
56136;SDS011;42008;52.934;5.884;2022-12-07T01:57:54;15.10;;;1.93;;
56136;SDS011;42008;52.934;5.884;2022-12-07T02:00:20;10.60;;;1.47;;
56136;SDS011;42008;52.934;5.884;2022-12-07T02:02:57;13.87;;;2.10;;
56136;SDS011;42008;52.934;5.884;2022-12-07T02:05:29;15.77;;;2.33;;
56136;SDS011;42008;52.934;5.884;2022-12-07T02:07:56;12.80;;;1.80;;
56136;SDS011;42008;52.934;5.884;2022-12-07T02:10:28;18.00;;;1.77;;
56136;SDS011;42008;52.934;5.884;2022-12-07T02:13:02;10.70;;;1.97;;
56136;SDS011;42008;52.934;5.884;2022-12-07T02:15:38;14.50;;;1.40;;
56136;SDS011;42008;52.934;5.884;2022-12-07T02:32:26;17.40;;;2.50;;
56136;SDS011;42008;52.934;5.884;2022-12-07T02:35:08;26.60;;;3.10;;
56136;SDS011;42008;52.934;5.884;2022-12-07T02:37:48;14.57;;;2.07;;
56136;SDS011;42008;52.934;5.884;2022-12-07T02:40:31;15.43;;;2.17;;
56136;SDS011;42008;52.934;5.884;2022-12-07T02:43:09;11.97;;;1.70;;
56136;SDS011;42008;52.934;5.884;2022-12-07T02:45:41;18.50;;;1.90;;
56136;SDS011;42008;52.934;5.884;2022-12-07T02:48:09;13.67;;;1.90;;
56136;SDS011;42008;52.934;5.884;2022-12-07T02:50:36;16.77;;;1.80;;
56136;SDS011;42008;52.934;5.884;2022-12-07T02:53:02;12.40;;;1.83;;
56136;SDS011;42008;52.934;5.884;2022-12-07T02:55:29;15.93;;;2.50;;
56136;SDS011;42008;52.934;5.884;2022-12-07T02:58:20;11.47;;;1.40;;
56136;SDS011;42008;52.934;5.884;2022-12-07T03:01:03;15.07;;;2.10;;
56136;SDS011;42008;52.934;5.884;2022-12-07T03:03:36;14.93;;;2.27;;
56136;SDS011;42008;52.934;5.884;2022-12-07T03:06:38;11.47;;;2.13;;
56136;SDS011;42008;52.934;5.884;2022-12-07T03:09:15;19.27;;;2.37;;
56136;SDS011;42008;52.934;5.884;2022-12-07T03:11:51;14.83;;;1.87;;
56136;SDS011;42008;52.934;5.884;2022-12-07T03:14:25;10.30;;;1.23;;
56136;SDS011;42008;52.934;5.884;2022-12-07T03:17:07;8.13;;;1.40;;
56136;SDS011;42008;52.934;5.884;2022-12-07T03:19:41;13.30;;;1.60;;
56136;SDS011;42008;52.934;5.884;2022-12-07T03:22:10;11.07;;;1.90;;
56136;SDS011;42008;52.934;5.884;2022-12-07T03:24:39;13.63;;;1.97;;
56136;SDS011;42008;52.934;5.884;2022-12-07T03:27:07;11.23;;;1.80;;
56136;SDS011;42008;52.934;5.884;2022-12-07T03:29:46;7.80;;;1.37;;
56136;SDS011;42008;52.934;5.884;2022-12-07T03:32:26;12.63;;;2.00;;
56136;SDS011;42008;52.934;5.884;2022-12-07T03:35:26;16.27;;;1.70;;
56136;SDS011;42008;52.934;5.884;2022-12-07T03:38:04;13.80;;;2.43;;
56136;SDS011;42008;52.934;5.884;2022-12-07T03:40:47;11.23;;;1.88;;
56136;SDS011;42008;52.934;5.884;2022-12-07T03:43:16;11.70;;;1.93;;
56136;SDS011;42008;52.934;5.884;2022-12-07T03:45:44;9.53;;;2.07;;
56136;SDS011;42008;52.934;5.884;2022-12-07T03:48:22;12.80;;;1.83;;
56136;SDS011;42008;52.934;5.884;2022-12-07T03:54:07;13.90;;;1.73;;
56136;SDS011;42008;52.934;5.884;2022-12-07T03:56:46;9.27;;;1.70;;
56136;SDS011;42008;52.934;5.884;2022-12-07T03:59:13;13.33;;;2.87;;
56136;SDS011;42008;52.934;5.884;2022-12-07T04:01:44;13.80;;;1.70;;
56136;SDS011;42008;52.934;5.884;2022-12-07T04:04:16;18.13;;;2.10;;
56136;SDS011;42008;52.934;5.884;2022-12-07T04:06:42;12.43;;;1.30;;
56136;SDS011;42008;52.934;5.884;2022-12-07T04:09:07;11.90;;;1.70;;
56136;SDS011;42008;52.934;5.884;2022-12-07T04:11:33;11.70;;;1.50;;
56136;SDS011;42008;52.934;5.884;2022-12-07T04:13:59;12.90;;;1.83;;
56136;SDS011;42008;52.934;5.884;2022-12-07T04:16:43;7.93;;;1.30;;
56136;SDS011;42008;52.934;5.884;2022-12-07T04:19:09;12.33;;;2.00;;
56136;SDS011;42008;52.934;5.884;2022-12-07T04:21:34;13.30;;;1.47;;
56136;SDS011;42008;52.934;5.884;2022-12-07T04:24:00;9.63;;;1.37;;
56136;SDS011;42008;52.934;5.884;2022-12-07T04:26:25;13.17;;;1.63;;
56136;SDS011;42008;52.934;5.884;2022-12-07T04:28:51;9.47;;;1.50;;
56136;SDS011;42008;52.934;5.884;2022-12-07T04:31:16;17.30;;;2.00;;
56136;SDS011;42008;52.934;5.884;2022-12-07T04:33:42;12.73;;;1.83;;
56136;SDS011;42008;52.934;5.884;2022-12-07T04:36:07;17.47;;;1.97;;
56136;SDS011;42008;52.934;5.884;2022-12-07T04:38:33;13.13;;;1.63;;
56136;SDS011;42008;52.934;5.884;2022-12-07T04:41:03;14.07;;;1.90;;
56136;SDS011;42008;52.934;5.884;2022-12-07T04:43:32;11.87;;;1.80;;
56136;SDS011;42008;52.934;5.884;2022-12-07T04:45:59;11.50;;;1.40;;
56136;SDS011;42008;52.934;5.884;2022-12-07T04:48:24;9.30;;;1.77;;
56136;SDS011;42008;52.934;5.884;2022-12-07T04:50:50;22.57;;;2.27;;
56136;SDS011;42008;52.934;5.884;2022-12-07T04:53:16;12.47;;;1.80;;
56136;SDS011;42008;52.934;5.884;2022-12-07T04:55:41;11.87;;;1.40;;
56136;SDS011;42008;52.934;5.884;2022-12-07T04:58:07;13.77;;;1.87;;
56136;SDS011;42008;52.934;5.884;2022-12-07T05:00:32;11.37;;;1.47;;
56136;SDS011;42008;52.934;5.884;2022-12-07T05:02:58;13.10;;;2.77;;
56136;SDS011;42008;52.934;5.884;2022-12-07T05:05:24;21.90;;;2.57;;
56136;SDS011;42008;52.934;5.884;2022-12-07T05:07:49;15.93;;;2.80;;
56136;SDS011;42008;52.934;5.884;2022-12-07T05:10:15;13.77;;;1.60;;
56136;SDS011;42008;52.934;5.884;2022-12-07T05:12:41;22.20;;;2.07;;
56136;SDS011;42008;52.934;5.884;2022-12-07T05:15:06;9.80;;;1.70;;
56136;SDS011;42008;52.934;5.884;2022-12-07T05:17:32;18.13;;;2.27;;
56136;SDS011;42008;52.934;5.884;2022-12-07T05:19:58;15.63;;;1.80;;
56136;SDS011;42008;52.934;5.884;2022-12-07T05:22:23;14.33;;;1.97;;
56136;SDS011;42008;52.934;5.884;2022-12-07T05:24:53;14.03;;;1.97;;
56136;SDS011;42008;52.934;5.884;2022-12-07T05:27:19;16.83;;;2.00;;
56136;SDS011;42008;52.934;5.884;2022-12-07T05:29:45;14.57;;;2.07;;
56136;SDS011;42008;52.934;5.884;2022-12-07T05:32:11;16.17;;;2.47;;
56136;SDS011;42008;52.934;5.884;2022-12-07T05:34:36;14.00;;;1.90;;
56136;SDS011;42008;52.934;5.884;2022-12-07T05:37:02;15.87;;;2.47;;
56136;SDS011;42008;52.934;5.884;2022-12-07T05:39:27;11.73;;;1.40;;
56136;SDS011;42008;52.934;5.884;2022-12-07T05:41:53;11.93;;;1.50;;
56136;SDS011;42008;52.934;5.884;2022-12-07T05:44:37;7.93;;;1.17;;
56136;SDS011;42008;52.934;5.884;2022-12-07T05:47:06;7.73;;;1.50;;
56136;SDS011;42008;52.934;5.884;2022-12-07T05:49:32;8.83;;;1.43;;
56136;SDS011;42008;52.934;5.884;2022-12-07T05:51:58;7.63;;;1.20;;
56136;SDS011;42008;52.934;5.884;2022-12-07T05:54:24;9.43;;;1.30;;
56136;SDS011;42008;52.934;5.884;2022-12-07T05:56:50;10.20;;;1.77;;
56136;SDS011;42008;52.934;5.884;2022-12-07T05:59:15;9.87;;;1.50;;
56136;SDS011;42008;52.934;5.884;2022-12-07T06:04:19;7.30;;;1.20;;
56136;SDS011;42008;52.934;5.884;2022-12-07T06:06:45;7.67;;;1.17;;
56136;SDS011;42008;52.934;5.884;2022-12-07T06:09:11;7.73;;;0.90;;
56136;SDS011;42008;52.934;5.884;2022-12-07T06:11:40;9.33;;;1.40;;
56136;SDS011;42008;52.934;5.884;2022-12-07T06:14:25;6.80;;;1.40;;
56136;SDS011;42008;52.934;5.884;2022-12-07T06:16:51;5.77;;;1.20;;
56136;SDS011;42008;52.934;5.884;2022-12-07T06:19:16;12.03;;;1.77;;
56136;SDS011;42008;52.934;5.884;2022-12-07T06:21:42;4.83;;;1.00;;
56136;SDS011;42008;52.934;5.884;2022-12-07T06:24:09;8.50;;;1.53;;
56136;SDS011;42008;52.934;5.884;2022-12-07T06:26:36;9.60;;;1.47;;
56136;SDS011;42008;52.934;5.884;2022-12-07T06:29:02;11.97;;;1.57;;
56136;SDS011;42008;52.934;5.884;2022-12-07T06:31:28;8.00;;;1.43;;
56136;SDS011;42008;52.934;5.884;2022-12-07T06:33:58;8.27;;;1.70;;
56136;SDS011;42008;52.934;5.884;2022-12-07T06:36:24;8.47;;;1.50;;
56136;SDS011;42008;52.934;5.884;2022-12-07T06:38:49;10.97;;;1.57;;
56136;SDS011;42008;52.934;5.884;2022-12-07T06:41:15;7.73;;;1.50;;
56136;SDS011;42008;52.934;5.884;2022-12-07T06:43:41;13.90;;;1.87;;
56136;SDS011;42008;52.934;5.884;2022-12-07T06:46:07;11.23;;;1.70;;
56136;SDS011;42008;52.934;5.884;2022-12-07T06:48:32;22.50;;;2.43;;
56136;SDS011;42008;52.934;5.884;2022-12-07T06:50:58;10.13;;;1.93;;
56136;SDS011;42008;52.934;5.884;2022-12-07T06:53:24;12.77;;;2.40;;
56136;SDS011;42008;52.934;5.884;2022-12-07T06:55:49;13.40;;;3.40;;
56136;SDS011;42008;52.934;5.884;2022-12-07T06:58:15;18.20;;;3.57;;
56136;SDS011;42008;52.934;5.884;2022-12-07T07:00:42;18.67;;;3.70;;
56136;SDS011;42008;52.934;5.884;2022-12-07T07:03:07;14.43;;;3.00;;
56136;SDS011;42008;52.934;5.884;2022-12-07T07:05:33;21.33;;;3.33;;
56136;SDS011;42008;52.934;5.884;2022-12-07T07:07:59;15.50;;;3.43;;
56136;SDS011;42008;52.934;5.884;2022-12-07T07:10:25;13.90;;;3.30;;
56136;SDS011;42008;52.934;5.884;2022-12-07T07:12:50;19.53;;;3.70;;
56136;SDS011;42008;52.934;5.884;2022-12-07T07:15:16;14.20;;;2.67;;
56136;SDS011;42008;52.934;5.884;2022-12-07T07:17:42;18.27;;;2.97;;
56136;SDS011;42008;52.934;5.884;2022-12-07T07:20:08;18.27;;;3.57;;
56136;SDS011;42008;52.934;5.884;2022-12-07T07:22:34;13.50;;;2.40;;
56136;SDS011;42008;52.934;5.884;2022-12-07T07:24:59;9.00;;;2.23;;
56136;SDS011;42008;52.934;5.884;2022-12-07T07:27:27;9.83;;;1.90;;
56136;SDS011;42008;52.934;5.884;2022-12-07T07:29:53;12.47;;;2.20;;
56136;SDS011;42008;52.934;5.884;2022-12-07T07:32:18;18.03;;;2.80;;
56136;SDS011;42008;52.934;5.884;2022-12-07T07:34:46;25.33;;;3.73;;
56136;SDS011;42008;52.934;5.884;2022-12-07T07:37:11;12.73;;;2.13;;
56136;SDS011;42008;52.934;5.884;2022-12-07T07:39:37;8.30;;;2.13;;
56136;SDS011;42008;52.934;5.884;2022-12-07T07:42:03;11.70;;;1.77;;
56136;SDS011;42008;52.934;5.884;2022-12-07T07:44:29;14.67;;;1.90;;
56136;SDS011;42008;52.934;5.884;2022-12-07T07:46:55;12.00;;;2.03;;
56136;SDS011;42008;52.934;5.884;2022-12-07T07:49:20;15.37;;;2.27;;
56136;SDS011;42008;52.934;5.884;2022-12-07T07:51:46;17.27;;;2.43;;
56136;SDS011;42008;52.934;5.884;2022-12-07T07:54:11;11.13;;;2.40;;
56136;SDS011;42008;52.934;5.884;2022-12-07T07:56:37;15.23;;;2.87;;
56136;SDS011;42008;52.934;5.884;2022-12-07T07:59:02;13.97;;;2.73;;
56136;SDS011;42008;52.934;5.884;2022-12-07T08:01:28;16.93;;;3.97;;
56136;SDS011;42008;52.934;5.884;2022-12-07T08:03:54;18.00;;;2.67;;
56136;SDS011;42008;52.934;5.884;2022-12-07T08:06:19;14.10;;;2.90;;
56136;SDS011;42008;52.934;5.884;2022-12-07T08:08:45;17.20;;;3.17;;
56136;SDS011;42008;52.934;5.884;2022-12-07T08:11:10;16.43;;;3.43;;
56136;SDS011;42008;52.934;5.884;2022-12-07T08:13:36;15.20;;;3.30;;
56136;SDS011;42008;52.934;5.884;2022-12-07T08:16:06;12.20;;;3.27;;
56136;SDS011;42008;52.934;5.884;2022-12-07T08:18:40;12.17;;;3.10;;
56136;SDS011;42008;52.934;5.884;2022-12-07T08:23:32;15.43;;;3.63;;
56136;SDS011;42008;52.934;5.884;2022-12-07T08:26:06;17.97;;;4.97;;
56136;SDS011;42008;52.934;5.884;2022-12-07T08:28:33;14.10;;;4.23;;
56136;SDS011;42008;52.934;5.884;2022-12-07T08:31:06;14.37;;;3.33;;
56136;SDS011;42008;52.934;5.884;2022-12-07T08:33:34;14.23;;;2.50;;
56136;SDS011;42008;52.934;5.884;2022-12-07T08:36:03;11.07;;;2.50;;
56136;SDS011;42008;52.934;5.884;2022-12-07T08:38:31;12.60;;;2.50;;
56136;SDS011;42008;52.934;5.884;2022-12-07T08:40:57;9.07;;;2.40;;
56136;SDS011;42008;52.934;5.884;2022-12-07T08:43:24;11.97;;;2.23;;
56136;SDS011;42008;52.934;5.884;2022-12-07T08:45:51;22.23;;;3.33;;
56136;SDS011;42008;52.934;5.884;2022-12-07T08:48:28;14.77;;;2.80;;
56136;SDS011;42008;52.934;5.884;2022-12-07T08:50:55;11.17;;;2.10;;
56136;SDS011;42008;52.934;5.884;2022-12-07T08:53:21;10.97;;;2.23;;
56136;SDS011;42008;52.934;5.884;2022-12-07T08:55:47;13.07;;;2.83;;
56136;SDS011;42008;52.934;5.884;2022-12-07T08:58:13;10.83;;;2.20;;
56136;SDS011;42008;52.934;5.884;2022-12-07T09:00:39;15.83;;;2.77;;
56136;SDS011;42008;52.934;5.884;2022-12-07T09:03:05;13.43;;;2.37;;
56136;SDS011;42008;52.934;5.884;2022-12-07T09:05:31;14.77;;;2.00;;
56136;SDS011;42008;52.934;5.884;2022-12-07T09:07:59;14.10;;;2.43;;
56136;SDS011;42008;52.934;5.884;2022-12-07T09:10:26;18.73;;;2.13;;
56136;SDS011;42008;52.934;5.884;2022-12-07T09:12:53;10.23;;;1.70;;
56136;SDS011;42008;52.934;5.884;2022-12-07T09:15:18;10.50;;;1.80;;
56136;SDS011;42008;52.934;5.884;2022-12-07T09:17:44;10.10;;;2.00;;
56136;SDS011;42008;52.934;5.884;2022-12-07T09:20:10;12.27;;;1.77;;
56136;SDS011;42008;52.934;5.884;2022-12-07T09:22:35;10.80;;;2.00;;
56136;SDS011;42008;52.934;5.884;2022-12-07T09:25:01;13.20;;;1.73;;
56136;SDS011;42008;52.934;5.884;2022-12-07T09:27:28;11.30;;;1.93;;
56136;SDS011;42008;52.934;5.884;2022-12-07T09:29:53;9.20;;;1.90;;
56136;SDS011;42008;52.934;5.884;2022-12-07T09:32:19;9.03;;;1.80;;
56136;SDS011;42008;52.934;5.884;2022-12-07T09:34:45;8.70;;;1.80;;
56136;SDS011;42008;52.934;5.884;2022-12-07T09:37:10;10.63;;;1.83;;
56136;SDS011;42008;52.934;5.884;2022-12-07T09:39:40;9.97;;;2.33;;
56136;SDS011;42008;52.934;5.884;2022-12-07T09:42:06;9.97;;;2.00;;
56136;SDS011;42008;52.934;5.884;2022-12-07T09:44:33;12.33;;;2.07;;
56136;SDS011;42008;52.934;5.884;2022-12-07T09:46:59;11.53;;;2.17;;
56136;SDS011;42008;52.934;5.884;2022-12-07T09:49:27;13.80;;;2.50;;
56136;SDS011;42008;52.934;5.884;2022-12-07T09:54:35;15.30;;;2.07;;
56136;SDS011;42008;52.934;5.884;2022-12-07T09:57:05;10.70;;;2.47;;
56136;SDS011;42008;52.934;5.884;2022-12-07T09:59:31;10.00;;;2.20;;
56136;SDS011;42008;52.934;5.884;2022-12-07T10:01:56;11.90;;;2.83;;
56136;SDS011;42008;52.934;5.884;2022-12-07T10:04:49;11.83;;;2.20;;
56136;SDS011;42008;52.934;5.884;2022-12-07T10:07:15;12.97;;;3.60;;
56136;SDS011;42008;52.934;5.884;2022-12-07T10:09:41;10.27;;;2.17;;
56136;SDS011;42008;52.934;5.884;2022-12-07T10:12:09;13.07;;;2.43;;
56136;SDS011;42008;52.934;5.884;2022-12-07T10:14:39;10.50;;;1.90;;
56136;SDS011;42008;52.934;5.884;2022-12-07T10:17:37;17.07;;;3.03;;
56136;SDS011;42008;52.934;5.884;2022-12-07T10:22:37;9.43;;;3.07;;
56136;SDS011;42008;52.934;5.884;2022-12-07T10:25:09;10.83;;;2.80;;
56136;SDS011;42008;52.934;5.884;2022-12-07T10:27:44;13.70;;;2.33;;
56136;SDS011;42008;52.934;5.884;2022-12-07T10:30:26;11.00;;;2.30;;
56136;SDS011;42008;52.934;5.884;2022-12-07T10:32:51;11.20;;;2.00;;
56136;SDS011;42008;52.934;5.884;2022-12-07T10:35:22;11.27;;;2.20;;
56136;SDS011;42008;52.934;5.884;2022-12-07T10:37:58;13.70;;;2.30;;
56136;SDS011;42008;52.934;5.884;2022-12-07T10:40:36;9.23;;;1.97;;
56136;SDS011;42008;52.934;5.884;2022-12-07T10:45:41;13.07;;;2.07;;
56136;SDS011;42008;52.934;5.884;2022-12-07T11:00:00;15.10;;;1.90;;
56136;SDS011;42008;52.934;5.884;2022-12-07T11:02:46;13.43;;;2.97;;
56136;SDS011;42008;52.934;5.884;2022-12-07T11:08:19;9.93;;;1.90;;
56136;SDS011;42008;52.934;5.884;2022-12-07T11:11:06;19.70;;;3.93;;
56136;SDS011;42008;52.934;5.884;2022-12-07T11:24:56;8.67;;;2.33;;
56136;SDS011;42008;52.934;5.884;2022-12-07T11:35:45;12.73;;;1.63;;
56136;SDS011;42008;52.934;5.884;2022-12-07T11:41:01;9.20;;;1.60;;
56136;SDS011;42008;52.934;5.884;2022-12-07T11:46:29;7.93;;;1.60;;
56136;SDS011;42008;52.934;5.884;2022-12-07T11:49:37;14.40;;;2.20;;
56136;SDS011;42008;52.934;5.884;2022-12-07T11:52:30;10.87;;;1.57;;
56136;SDS011;42008;52.934;5.884;2022-12-07T11:55:16;7.13;;;1.63;;
56136;SDS011;42008;52.934;5.884;2022-12-07T11:57:54;11.83;;;1.70;;
56136;SDS011;42008;52.934;5.884;2022-12-07T12:00:27;10.33;;;1.80;;
56136;SDS011;42008;52.934;5.884;2022-12-07T12:02:58;7.40;;;1.60;;
56136;SDS011;42008;52.934;5.884;2022-12-07T12:05:36;7.60;;;1.90;;
56136;SDS011;42008;52.934;5.884;2022-12-07T12:08:10;8.17;;;1.77;;
56136;SDS011;42008;52.934;5.884;2022-12-07T12:16:27;12.27;;;2.57;;
56136;SDS011;42008;52.934;5.884;2022-12-07T12:22:37;9.43;;;1.80;;
56136;SDS011;42008;52.934;5.884;2022-12-07T12:25:07;10.30;;;1.90;;
56136;SDS011;42008;52.934;5.884;2022-12-07T12:33:16;13.23;;;2.47;;
56136;SDS011;42008;52.934;5.884;2022-12-07T12:38:50;13.23;;;2.00;;
56136;SDS011;42008;52.934;5.884;2022-12-07T12:44:01;12.10;;;1.97;;
56136;SDS011;42008;52.934;5.884;2022-12-07T12:51:47;8.57;;;1.40;;
56136;SDS011;42008;52.934;5.884;2022-12-07T12:54:23;11.67;;;1.73;;
56136;SDS011;42008;52.934;5.884;2022-12-07T12:59:32;13.77;;;2.53;;
56136;SDS011;42008;52.934;5.884;2022-12-07T13:15:41;9.03;;;1.30;;
56136;SDS011;42008;52.934;5.884;2022-12-07T13:28:43;7.03;;;1.23;;
56136;SDS011;42008;52.934;5.884;2022-12-07T13:31:24;5.35;;;1.10;;
56136;SDS011;42008;52.934;5.884;2022-12-07T13:33:52;7.03;;;1.20;;
56136;SDS011;42008;52.934;5.884;2022-12-07T13:36:25;4.97;;;1.10;;
56136;SDS011;42008;52.934;5.884;2022-12-07T13:41:43;10.67;;;1.37;;
56136;SDS011;42008;52.934;5.884;2022-12-07T13:44:14;5.23;;;1.20;;
56136;SDS011;42008;52.934;5.884;2022-12-07T13:49:49;9.83;;;1.90;;
56136;SDS011;42008;52.934;5.884;2022-12-07T13:52:24;7.63;;;1.57;;
56136;SDS011;42008;52.934;5.884;2022-12-07T13:54:56;8.30;;;1.57;;
56136;SDS011;42008;52.934;5.884;2022-12-07T13:57:34;7.17;;;1.10;;
56136;SDS011;42008;52.934;5.884;2022-12-07T14:00:02;6.73;;;1.27;;
56136;SDS011;42008;52.934;5.884;2022-12-07T14:02:32;6.77;;;1.30;;
56136;SDS011;42008;52.934;5.884;2022-12-07T14:05:08;8.47;;;1.50;;
56136;SDS011;42008;52.934;5.884;2022-12-07T14:07:48;8.40;;;1.50;;
56136;SDS011;42008;52.934;5.884;2022-12-07T14:10:23;10.80;;;1.57;;
56136;SDS011;42008;52.934;5.884;2022-12-07T14:12:52;12.30;;;1.80;;
56136;SDS011;42008;52.934;5.884;2022-12-07T14:15:24;9.80;;;2.23;;
56136;SDS011;42008;52.934;5.884;2022-12-07T14:17:54;9.47;;;1.20;;
56136;SDS011;42008;52.934;5.884;2022-12-07T14:20:37;10.03;;;1.60;;
56136;SDS011;42008;52.934;5.884;2022-12-07T14:23:04;12.00;;;1.67;;
56136;SDS011;42008;52.934;5.884;2022-12-07T14:25:46;7.83;;;1.33;;
56136;SDS011;42008;52.934;5.884;2022-12-07T14:28:30;8.47;;;1.50;;
56136;SDS011;42008;52.934;5.884;2022-12-07T14:30:58;5.17;;;1.10;;
56136;SDS011;42008;52.934;5.884;2022-12-07T14:33:24;3.60;;;0.80;;
56136;SDS011;42008;52.934;5.884;2022-12-07T14:35:50;6.13;;;1.63;;
56136;SDS011;42008;52.934;5.884;2022-12-07T14:38:21;3.27;;;0.90;;
56136;SDS011;42008;52.934;5.884;2022-12-07T14:40:46;6.50;;;0.87;;
56136;SDS011;42008;52.934;5.884;2022-12-07T14:43:14;3.97;;;0.90;;
56136;SDS011;42008;52.934;5.884;2022-12-07T14:45:41;3.07;;;0.93;;
56136;SDS011;42008;52.934;5.884;2022-12-07T14:48:07;4.43;;;1.07;;
56136;SDS011;42008;52.934;5.884;2022-12-07T14:50:37;8.40;;;0.90;;
56136;SDS011;42008;52.934;5.884;2022-12-07T14:53:10;4.57;;;1.00;;
56136;SDS011;42008;52.934;5.884;2022-12-07T14:55:47;3.77;;;1.03;;
56136;SDS011;42008;52.934;5.884;2022-12-07T14:58:13;3.97;;;0.93;;
56136;SDS011;42008;52.934;5.884;2022-12-07T15:00:40;5.87;;;1.60;;
56136;SDS011;42008;52.934;5.884;2022-12-07T15:03:06;7.07;;;1.80;;
56136;SDS011;42008;52.934;5.884;2022-12-07T15:05:32;5.90;;;2.17;;
56136;SDS011;42008;52.934;5.884;2022-12-07T15:07:58;4.00;;;1.37;;
56136;SDS011;42008;52.934;5.884;2022-12-07T15:10:28;4.20;;;1.00;;
56136;SDS011;42008;52.934;5.884;2022-12-07T15:13:00;3.57;;;1.03;;
56136;SDS011;42008;52.934;5.884;2022-12-07T15:15:46;5.47;;;1.53;;
56136;SDS011;42008;52.934;5.884;2022-12-07T15:18:12;9.27;;;1.80;;
56136;SDS011;42008;52.934;5.884;2022-12-07T15:20:38;9.00;;;1.67;;
56136;SDS011;42008;52.934;5.884;2022-12-07T15:23:04;8.70;;;1.77;;
56136;SDS011;42008;52.934;5.884;2022-12-07T15:25:30;8.30;;;1.63;;
56136;SDS011;42008;52.934;5.884;2022-12-07T15:27:55;5.43;;;1.57;;
56136;SDS011;42008;52.934;5.884;2022-12-07T15:30:21;5.53;;;1.83;;
56136;SDS011;42008;52.934;5.884;2022-12-07T15:32:52;4.97;;;1.30;;
56136;SDS011;42008;52.934;5.884;2022-12-07T15:35:18;8.57;;;1.70;;
56136;SDS011;42008;52.934;5.884;2022-12-07T15:37:44;6.57;;;1.47;;
56136;SDS011;42008;52.934;5.884;2022-12-07T15:40:10;6.07;;;1.50;;
56136;SDS011;42008;52.934;5.884;2022-12-07T15:42:37;9.03;;;2.40;;
56136;SDS011;42008;52.934;5.884;2022-12-07T15:45:04;9.87;;;1.83;;
56136;SDS011;42008;52.934;5.884;2022-12-07T15:47:31;5.90;;;2.07;;
56136;SDS011;42008;52.934;5.884;2022-12-07T15:50:15;6.83;;;2.20;;
56136;SDS011;42008;52.934;5.884;2022-12-07T15:52:41;8.80;;;1.60;;
56136;SDS011;42008;52.934;5.884;2022-12-07T15:55:07;8.80;;;1.97;;
56136;SDS011;42008;52.934;5.884;2022-12-07T15:57:35;12.63;;;1.60;;
56136;SDS011;42008;52.934;5.884;2022-12-07T16:00:05;4.10;;;1.10;;
56136;SDS011;42008;52.934;5.884;2022-12-07T16:02:32;6.27;;;1.23;;
56136;SDS011;42008;52.934;5.884;2022-12-07T16:04:58;7.90;;;1.50;;
56136;SDS011;42008;52.934;5.884;2022-12-07T16:07:23;9.43;;;1.40;;
56136;SDS011;42008;52.934;5.884;2022-12-07T16:09:49;6.57;;;1.20;;
56136;SDS011;42008;52.934;5.884;2022-12-07T16:12:15;5.87;;;1.20;;
56136;SDS011;42008;52.934;5.884;2022-12-07T16:14:41;11.13;;;1.20;;
56136;SDS011;42008;52.934;5.884;2022-12-07T16:17:07;6.10;;;1.10;;
56136;SDS011;42008;52.934;5.884;2022-12-07T16:19:34;9.80;;;1.13;;
56136;SDS011;42008;52.934;5.884;2022-12-07T16:22:00;8.13;;;1.83;;
56136;SDS011;42008;52.934;5.884;2022-12-07T16:24:26;8.70;;;2.17;;
56136;SDS011;42008;52.934;5.884;2022-12-07T16:26:52;10.03;;;2.63;;
56136;SDS011;42008;52.934;5.884;2022-12-07T16:29:18;10.43;;;2.90;;
56136;SDS011;42008;52.934;5.884;2022-12-07T16:31:45;4.80;;;1.70;;
56136;SDS011;42008;52.934;5.884;2022-12-07T16:34:11;4.40;;;2.00;;
56136;SDS011;42008;52.934;5.884;2022-12-07T16:36:37;10.07;;;1.70;;
56136;SDS011;42008;52.934;5.884;2022-12-07T16:39:02;5.33;;;1.80;;
56136;SDS011;42008;52.934;5.884;2022-12-07T16:41:29;6.87;;;1.83;;
56136;SDS011;42008;52.934;5.884;2022-12-07T16:43:55;11.43;;;1.63;;
56136;SDS011;42008;52.934;5.884;2022-12-07T16:46:21;6.27;;;2.17;;
56136;SDS011;42008;52.934;5.884;2022-12-07T16:48:46;4.10;;;1.60;;
56136;SDS011;42008;52.934;5.884;2022-12-07T16:51:12;8.90;;;2.47;;
56136;SDS011;42008;52.934;5.884;2022-12-07T16:53:39;7.07;;;1.67;;
56136;SDS011;42008;52.934;5.884;2022-12-07T16:56:13;9.10;;;1.67;;
56136;SDS011;42008;52.934;5.884;2022-12-07T16:58:40;10.10;;;1.47;;
56136;SDS011;42008;52.934;5.884;2022-12-07T17:01:11;7.50;;;1.83;;